sensor_id;sensor_type;location;lat;lon;timestamp;pressure;altitude;pressure_sealevel;temperature;humidity
31121;BME280;17770;45.966;13.632;2023-12-20T00:01:51;100651.16;;;14.36;59.39
31121;BME280;17770;45.966;13.632;2023-12-20T00:04:18;100645.97;;;14.36;59.26
31121;BME280;17770;45.966;13.632;2023-12-20T00:06:44;100644.28;;;14.35;59.33
31121;BME280;17770;45.966;13.632;2023-12-20T00:09:11;100641.75;;;14.33;59.52
31121;BME280;17770;45.966;13.632;2023-12-20T00:11:38;100635.63;;;14.34;59.16
31121;BME280;17770;45.966;13.632;2023-12-20T00:14:05;100634.75;;;14.35;59.26
31121;BME280;17770;45.966;13.632;2023-12-20T00:16:31;100631.25;;;14.36;59.36
31121;BME280;17770;45.966;13.632;2023-12-20T00:19:00;100630.44;;;14.34;59.22
31121;BME280;17770;45.966;13.632;2023-12-20T00:21:28;100632.22;;;14.34;59.14
31121;BME280;17770;45.966;13.632;2023-12-20T00:23:54;100627.84;;;14.34;59.32
31121;BME280;17770;45.966;13.632;2023-12-20T00:26:20;100622.66;;;14.34;59.45
31121;BME280;17770;45.966;13.632;2023-12-20T00:28:46;100620.94;;;14.35;59.41
31121;BME280;17770;45.966;13.632;2023-12-20T00:31:13;100630.50;;;14.33;59.01
31121;BME280;17770;45.966;13.632;2023-12-20T00:33:40;100620.06;;;14.34;58.99
31121;BME280;17770;45.966;13.632;2023-12-20T00:36:09;100626.19;;;14.33;59.25
31121;BME280;17770;45.966;13.632;2023-12-20T00:38:36;100621.91;;;14.32;59.46
31121;BME280;17770;45.966;13.632;2023-12-20T00:41:02;100621.00;;;14.33;59.09
31121;BME280;17770;45.966;13.632;2023-12-20T00:43:30;100616.72;;;14.32;59.31
31121;BME280;17770;45.966;13.632;2023-12-20T00:45:57;100620.19;;;14.31;59.07
31121;BME280;17770;45.966;13.632;2023-12-20T00:48:23;100621.06;;;14.32;59.11
31121;BME280;17770;45.966;13.632;2023-12-20T00:50:49;100620.19;;;14.31;59.30
31121;BME280;17770;45.966;13.632;2023-12-20T00:53:15;100612.41;;;14.31;59.09
31121;BME280;17770;45.966;13.632;2023-12-20T00:55:41;100611.59;;;14.31;59.22
31121;BME280;17770;45.966;13.632;2023-12-20T00:58:10;100604.69;;;14.30;59.39
31121;BME280;17770;45.966;13.632;2023-12-20T01:00:37;100609.81;;;14.31;59.14
31121;BME280;17770;45.966;13.632;2023-12-20T01:03:04;100604.69;;;14.30;59.50
31121;BME280;17770;45.966;13.632;2023-12-20T01:05:30;100598.63;;;14.31;59.08
31121;BME280;17770;45.966;13.632;2023-12-20T01:07:56;100599.44;;;14.31;59.02
31121;BME280;17770;45.966;13.632;2023-12-20T01:10:22;100591.72;;;14.30;59.34
31121;BME280;17770;45.966;13.632;2023-12-20T01:12:48;100584.88;;;14.29;58.96
31121;BME280;17770;45.966;13.632;2023-12-20T01:15:14;100577.94;;;14.29;59.13
31121;BME280;17770;45.966;13.632;2023-12-20T01:17:40;100584.88;;;14.29;58.84
31121;BME280;17770;45.966;13.632;2023-12-20T01:20:06;100583.13;;;14.29;59.47
31121;BME280;17770;45.966;13.632;2023-12-20T01:22:35;100573.69;;;14.27;59.35
31121;BME280;17770;45.966;13.632;2023-12-20T01:25:01;100564.19;;;14.27;59.08
31121;BME280;17770;45.966;13.632;2023-12-20T01:27:29;100565.06;;;14.26;59.23
31121;BME280;17770;45.966;13.632;2023-12-20T01:29:57;100566.00;;;14.25;59.40
31121;BME280;17770;45.966;13.632;2023-12-20T01:32:23;100564.19;;;14.27;58.78
31121;BME280;17770;45.966;13.632;2023-12-20T01:34:49;100570.19;;;14.28;59.30
31121;BME280;17770;45.966;13.632;2023-12-20T01:37:17;100561.66;;;14.26;59.17
31121;BME280;17770;45.966;13.632;2023-12-20T01:39:43;100562.41;;;14.28;58.67
31121;BME280;17770;45.966;13.632;2023-12-20T01:42:09;100559.06;;;14.26;59.06
31121;BME280;17770;45.966;13.632;2023-12-20T01:44:35;100561.59;;;14.27;59.20
31121;BME280;17770;45.966;13.632;2023-12-20T01:47:01;100553.03;;;14.25;59.12
31121;BME280;17770;45.966;13.632;2023-12-20T01:49:30;100548.69;;;14.26;59.23
31121;BME280;17770;45.966;13.632;2023-12-20T01:51:57;100540.94;;;14.24;58.93
31121;BME280;17770;45.966;13.632;2023-12-20T01:54:23;100545.28;;;14.24;58.95
31121;BME280;17770;45.966;13.632;2023-12-20T01:56:51;100545.28;;;14.24;58.67
31121;BME280;17770;45.966;13.632;2023-12-20T01:59:18;100534.03;;;14.23;58.99
31121;BME280;17770;45.966;13.632;2023-12-20T02:01:47;100535.75;;;14.24;58.92
31121;BME280;17770;45.966;13.632;2023-12-20T02:04:13;100537.50;;;14.24;58.75
31121;BME280;17770;45.966;13.632;2023-12-20T02:06:40;100522.00;;;14.22;58.97
31121;BME280;17770;45.966;13.632;2023-12-20T02:09:08;100533.19;;;14.23;59.07
31121;BME280;17770;45.966;13.632;2023-12-20T02:11:35;100529.72;;;14.24;59.06
31121;BME280;17770;45.966;13.632;2023-12-20T02:14:02;100524.66;;;14.21;58.88
31121;BME280;17770;45.966;13.632;2023-12-20T02:16:28;100525.53;;;14.20;58.54
31121;BME280;17770;45.966;13.632;2023-12-20T02:18:54;100517.69;;;14.21;58.97
31121;BME280;17770;45.966;13.632;2023-12-20T02:21:34;100516.88;;;14.21;58.72
31121;BME280;17770;45.966;13.632;2023-12-20T02:24:02;100517.81;;;14.18;58.78
31121;BME280;17770;45.966;13.632;2023-12-20T02:26:28;100516.00;;;14.20;58.47
31121;BME280;17770;45.966;13.632;2023-12-20T02:28:55;100515.22;;;14.18;59.00
31121;BME280;17770;45.966;13.632;2023-12-20T02:31:22;100508.22;;;14.20;59.06
31121;BME280;17770;45.966;13.632;2023-12-20T02:33:49;100505.78;;;14.17;58.86
31121;BME280;17770;45.966;13.632;2023-12-20T02:36:17;100492.75;;;14.19;58.77
31121;BME280;17770;45.966;13.632;2023-12-20T02:38:43;100486.69;;;14.18;58.75
31121;BME280;17770;45.966;13.632;2023-12-20T02:41:09;100484.09;;;14.18;58.65
31121;BME280;17770;45.966;13.632;2023-12-20T02:43:35;100487.63;;;14.17;58.78
31121;BME280;17770;45.966;13.632;2023-12-20T02:46:01;100479.06;;;14.15;58.60
31121;BME280;17770;45.966;13.632;2023-12-20T02:48:27;100475.59;;;14.15;58.93
31121;BME280;17770;45.966;13.632;2023-12-20T02:50:53;100473.94;;;14.14;58.80
31121;BME280;17770;45.966;13.632;2023-12-20T02:53:20;100473.00;;;14.15;58.77
31121;BME280;17770;45.966;13.632;2023-12-20T02:55:46;100473.94;;;14.14;58.98
31121;BME280;17770;45.966;13.632;2023-12-20T02:58:12;100470.50;;;14.13;58.79
31121;BME280;17770;45.966;13.632;2023-12-20T03:00:38;100467.00;;;14.14;58.69
31121;BME280;17770;45.966;13.632;2023-12-20T03:03:04;100470.50;;;14.13;58.51
31121;BME280;17770;45.966;13.632;2023-12-20T03:05:30;100468.81;;;14.12;58.58
31121;BME280;17770;45.966;13.632;2023-12-20T03:07:57;100464.47;;;14.13;58.96
31121;BME280;17770;45.966;13.632;2023-12-20T03:10:23;100461.94;;;14.11;58.63
31121;BME280;17770;45.966;13.632;2023-12-20T03:12:49;100461.03;;;14.12;58.67
31121;BME280;17770;45.966;13.632;2023-12-20T03:15:15;100447.28;;;14.10;58.71
31121;BME280;17770;45.966;13.632;2023-12-20T03:17:41;100450.66;;;14.12;58.63
31121;BME280;17770;45.966;13.632;2023-12-20T03:20:07;100445.63;;;14.09;58.79
31121;BME280;17770;45.966;13.632;2023-12-20T03:22:34;100441.31;;;14.08;58.78
31121;BME280;17770;45.966;13.632;2023-12-20T03:25:00;100442.16;;;14.09;58.69
31121;BME280;17770;45.966;13.632;2023-12-20T03:27:26;100442.94;;;14.11;59.10
31121;BME280;17770;45.966;13.632;2023-12-20T03:29:52;100441.31;;;14.08;58.96
31121;BME280;17770;45.966;13.632;2023-12-20T03:32:18;100443.09;;;14.08;58.47
31121;BME280;17770;45.966;13.632;2023-12-20T03:34:44;100436.13;;;14.08;58.62
31121;BME280;17770;45.966;13.632;2023-12-20T03:37:10;100436.19;;;14.07;58.53
31121;BME280;17770;45.966;13.632;2023-12-20T03:39:36;100437.06;;;14.07;58.54
31121;BME280;17770;45.966;13.632;2023-12-20T03:42:02;100436.25;;;14.05;58.63
31121;BME280;17770;45.966;13.632;2023-12-20T03:44:28;100441.44;;;14.05;58.67
31121;BME280;17770;45.966;13.632;2023-12-20T03:46:54;100440.56;;;14.06;58.58
31121;BME280;17770;45.966;13.632;2023-12-20T03:49:20;100431.09;;;14.05;58.76
31121;BME280;17770;45.966;13.632;2023-12-20T03:51:46;100427.59;;;14.06;58.69
31121;BME280;17770;45.966;13.632;2023-12-20T03:54:12;100427.59;;;14.06;58.56
31121;BME280;17770;45.966;13.632;2023-12-20T03:56:38;100422.44;;;14.05;58.89
31121;BME280;17770;45.966;13.632;2023-12-20T03:59:04;100413.00;;;14.04;58.28
31121;BME280;17770;45.966;13.632;2023-12-20T04:01:30;100413.84;;;14.04;58.37
31121;BME280;17770;45.966;13.632;2023-12-20T04:03:56;100415.59;;;14.04;58.46
31121;BME280;17770;45.966;13.632;2023-12-20T04:06:22;100401.78;;;14.03;58.44
31121;BME280;17770;45.966;13.632;2023-12-20T04:08:48;100402.69;;;14.02;58.89
31121;BME280;17770;45.966;13.632;2023-12-20T04:11:14;100403.53;;;14.03;58.40
31121;BME280;17770;45.966;13.632;2023-12-20T04:13:40;100398.34;;;14.03;58.43
31121;BME280;17770;45.966;13.632;2023-12-20T04:16:06;100399.19;;;14.03;58.42
31121;BME280;17770;45.966;13.632;2023-12-20T04:18:32;100397.50;;;14.02;58.40
31121;BME280;17770;45.966;13.632;2023-12-20T04:20:58;100397.50;;;14.02;58.33
31121;BME280;17770;45.966;13.632;2023-12-20T04:23:24;100391.47;;;14.02;58.16
31121;BME280;17770;45.966;13.632;2023-12-20T04:25:50;100389.72;;;14.02;58.33
31121;BME280;17770;45.966;13.632;2023-12-20T04:28:16;100374.19;;;14.02;58.19
31121;BME280;17770;45.966;13.632;2023-12-20T04:30:42;100372.50;;;14.01;58.62
31121;BME280;17770;45.966;13.632;2023-12-20T04:33:08;100369.91;;;14.01;58.19
31121;BME280;17770;45.966;13.632;2023-12-20T04:35:34;100364.75;;;14.00;58.71
31121;BME280;17770;45.966;13.632;2023-12-20T04:38:01;100369.06;;;14.01;58.15
31121;BME280;17770;45.966;13.632;2023-12-20T04:40:27;100361.34;;;13.99;58.43
31121;BME280;17770;45.966;13.632;2023-12-20T04:42:54;100360.44;;;14.00;58.37
31121;BME280;17770;45.966;13.632;2023-12-20T04:45:20;100368.28;;;13.99;58.30
31121;BME280;17770;45.966;13.632;2023-12-20T04:47:46;100363.09;;;13.99;58.55
31121;BME280;17770;45.966;13.632;2023-12-20T04:50:12;100353.63;;;13.98;58.19
31121;BME280;17770;45.966;13.632;2023-12-20T04:52:38;100358.81;;;13.98;58.22
31121;BME280;17770;45.966;13.632;2023-12-20T04:55:05;100347.59;;;13.97;58.46
31121;BME280;17770;45.966;13.632;2023-12-20T04:57:31;100332.19;;;13.94;58.29
31121;BME280;17770;45.966;13.632;2023-12-20T04:59:57;100336.44;;;13.95;58.21
31121;BME280;17770;45.966;13.632;2023-12-20T05:02:23;100328.75;;;13.94;58.21
31121;BME280;17770;45.966;13.632;2023-12-20T05:04:49;100336.53;;;13.94;58.63
31121;BME280;17770;45.966;13.632;2023-12-20T05:07:15;100335.66;;;13.93;58.27
31121;BME280;17770;45.966;13.632;2023-12-20T05:09:41;100332.19;;;13.94;58.48
31121;BME280;17770;45.966;13.632;2023-12-20T05:12:08;100333.94;;;13.94;58.36
31121;BME280;17770;45.966;13.632;2023-12-20T05:14:34;100342.69;;;13.91;58.37
31121;BME280;17770;45.966;13.632;2023-12-20T05:17:00;100346.03;;;13.93;58.67
31121;BME280;17770;45.966;13.632;2023-12-20T05:19:26;100330.47;;;13.93;58.26
31121;BME280;17770;45.966;13.632;2023-12-20T05:21:52;100337.50;;;13.91;58.85
31121;BME280;17770;45.966;13.632;2023-12-20T05:24:18;100333.22;;;13.90;58.35
31121;BME280;17770;45.966;13.632;2023-12-20T05:26:44;100335.00;;;13.90;58.06
31121;BME280;17770;45.966;13.632;2023-12-20T05:29:10;100331.53;;;13.89;58.52
31121;BME280;17770;45.966;13.632;2023-12-20T05:31:36;100334.91;;;13.91;58.36
31121;BME280;17770;45.966;13.632;2023-12-20T05:34:02;100337.59;;;13.90;58.46
31121;BME280;17770;45.966;13.632;2023-12-20T05:36:27;100337.59;;;13.90;58.29
31121;BME280;17770;45.966;13.632;2023-12-20T05:38:54;100341.91;;;13.89;58.51
31121;BME280;17770;45.966;13.632;2023-12-20T05:41:19;100339.31;;;13.89;58.17
31121;BME280;17770;45.966;13.632;2023-12-20T05:43:47;100345.41;;;13.88;57.95
31121;BME280;17770;45.966;13.632;2023-12-20T05:46:13;100348.00;;;13.88;58.06
31121;BME280;17770;45.966;13.632;2023-12-20T05:48:38;100353.16;;;13.88;58.13
31121;BME280;17770;45.966;13.632;2023-12-20T05:51:05;100358.34;;;13.88;58.48
31121;BME280;17770;45.966;13.632;2023-12-20T05:53:31;100357.53;;;13.88;58.29
31121;BME280;17770;45.966;13.632;2023-12-20T05:55:56;100373.97;;;13.87;58.30
31121;BME280;17770;45.966;13.632;2023-12-20T05:58:22;100360.25;;;13.85;58.50
31121;BME280;17770;45.966;13.632;2023-12-20T06:00:48;100349.91;;;13.85;57.92
31121;BME280;17770;45.966;13.632;2023-12-20T06:03:14;100353.31;;;13.85;58.05
31121;BME280;17770;45.966;13.632;2023-12-20T06:05:41;100347.34;;;13.83;58.42
31121;BME280;17770;45.966;13.632;2023-12-20T06:08:06;100340.41;;;13.84;58.29
31121;BME280;17770;45.966;13.632;2023-12-20T06:10:32;100331.03;;;13.81;58.29
31121;BME280;17770;45.966;13.632;2023-12-20T06:12:58;100330.06;;;13.84;57.96
31121;BME280;17770;45.966;13.632;2023-12-20T06:15:26;100327.53;;;13.82;58.04
31121;BME280;17770;45.966;13.632;2023-12-20T06:17:52;100330.13;;;13.82;58.00
31121;BME280;17770;45.966;13.632;2023-12-20T06:20:18;100332.78;;;13.81;58.13
31121;BME280;17770;45.966;13.632;2023-12-20T06:22:43;100330.13;;;13.82;58.07
31121;BME280;17770;45.966;13.632;2023-12-20T06:25:09;100332.78;;;13.81;58.07
31121;BME280;17770;45.966;13.632;2023-12-20T06:27:35;100334.50;;;13.80;58.26
31121;BME280;17770;45.966;13.632;2023-12-20T06:30:01;100333.63;;;13.81;57.95
31121;BME280;17770;45.966;13.632;2023-12-20T06:32:27;100337.03;;;13.82;58.11
31121;BME280;17770;45.966;13.632;2023-12-20T06:34:54;100337.88;;;13.82;57.98
31121;BME280;17770;45.966;13.632;2023-12-20T06:37:20;100333.75;;;13.78;58.23
31121;BME280;17770;45.966;13.632;2023-12-20T06:39:46;100332.00;;;13.79;58.09
31121;BME280;17770;45.966;13.632;2023-12-20T06:42:12;100329.47;;;13.77;57.96
31121;BME280;17770;45.966;13.632;2023-12-20T06:44:38;100320.81;;;13.78;58.05
31121;BME280;17770;45.966;13.632;2023-12-20T06:47:05;100310.44;;;13.78;57.87
31121;BME280;17770;45.966;13.632;2023-12-20T06:49:31;100319.88;;;13.79;57.93
31121;BME280;17770;45.966;13.632;2023-12-20T06:51:57;100300.13;;;13.77;57.94
31121;BME280;17770;45.966;13.632;2023-12-20T06:54:22;100304.47;;;13.76;57.78
31121;BME280;17770;45.966;13.632;2023-12-20T06:56:48;100301.03;;;13.76;57.88
31121;BME280;17770;45.966;13.632;2023-12-20T06:59:14;100293.25;;;13.76;58.37
31121;BME280;17770;45.966;13.632;2023-12-20T07:01:41;100293.31;;;13.74;57.87
31121;BME280;17770;45.966;13.632;2023-12-20T07:04:08;100311.47;;;13.74;57.86
31121;BME280;17770;45.966;13.632;2023-12-20T07:06:34;100320.91;;;13.75;58.23
31121;BME280;17770;45.966;13.632;2023-12-20T07:08:59;100333.88;;;13.75;57.90
31121;BME280;17770;45.966;13.632;2023-12-20T07:11:25;100333.88;;;13.75;57.70
31121;BME280;17770;45.966;13.632;2023-12-20T07:13:51;100329.53;;;13.76;57.81
31121;BME280;17770;45.966;13.632;2023-12-20T07:16:17;100326.09;;;13.75;58.14
31121;BME280;17770;45.966;13.632;2023-12-20T07:18:43;100332.97;;;13.76;58.07
31121;BME280;17770;45.966;13.632;2023-12-20T07:21:09;100334.72;;;13.76;57.79
31121;BME280;17770;45.966;13.632;2023-12-20T07:23:35;100325.28;;;13.75;57.87
31121;BME280;17770;45.966;13.632;2023-12-20T07:26:01;100326.09;;;13.75;57.97
31121;BME280;17770;45.966;13.632;2023-12-20T07:28:26;100326.09;;;13.75;57.68
31121;BME280;17770;45.966;13.632;2023-12-20T07:30:52;100327.94;;;13.73;57.65
31121;BME280;17770;45.966;13.632;2023-12-20T07:33:18;100330.53;;;13.73;58.19
31121;BME280;17770;45.966;13.632;2023-12-20T07:35:44;100340.03;;;13.73;58.06
31121;BME280;17770;45.966;13.632;2023-12-20T07:38:10;100340.03;;;13.73;58.12
31121;BME280;17770;45.966;13.632;2023-12-20T07:40:37;100334.00;;;13.72;57.70
31121;BME280;17770;45.966;13.632;2023-12-20T07:43:04;100336.53;;;13.74;58.09
31121;BME280;17770;45.966;13.632;2023-12-20T07:45:30;100345.22;;;13.73;58.06
31121;BME280;17770;45.966;13.632;2023-12-20T07:47:56;100344.38;;;13.72;58.23
31121;BME280;17770;45.966;13.632;2023-12-20T07:50:22;100340.91;;;13.73;57.92
31121;BME280;17770;45.966;13.632;2023-12-20T07:52:47;100343.53;;;13.72;58.29
31121;BME280;17770;45.966;13.632;2023-12-20T07:55:13;100354.75;;;13.72;58.01
31121;BME280;17770;45.966;13.632;2023-12-20T07:57:39;100349.56;;;13.72;57.48
31121;BME280;17770;45.966;13.632;2023-12-20T08:00:05;100354.75;;;13.72;58.09
31121;BME280;17770;45.966;13.632;2023-12-20T08:02:31;100358.25;;;13.71;58.30
31121;BME280;17770;45.966;13.632;2023-12-20T08:04:57;100367.75;;;13.71;58.20
31121;BME280;17770;45.966;13.632;2023-12-20T08:07:23;100372.03;;;13.72;57.70
31121;BME280;17770;45.966;13.632;2023-12-20T08:09:49;100375.47;;;13.72;58.05
31121;BME280;17770;45.966;13.632;2023-12-20T08:12:17;100375.47;;;13.72;57.64
31121;BME280;17770;45.966;13.632;2023-12-20T08:14:42;100374.63;;;13.72;58.28
31121;BME280;17770;45.966;13.632;2023-12-20T08:17:08;100366.03;;;13.71;57.79
31121;BME280;17770;45.966;13.632;2023-12-20T08:19:34;100374.59;;;13.73;57.86
31121;BME280;17770;45.966;13.632;2023-12-20T08:22:00;100374.63;;;13.72;57.82
31121;BME280;17770;45.966;13.632;2023-12-20T08:24:26;100369.50;;;13.70;57.53
31121;BME280;17770;45.966;13.632;2023-12-20T08:26:52;100374.63;;;13.72;57.96
31121;BME280;17770;45.966;13.632;2023-12-20T08:29:18;100378.91;;;13.73;57.67
31121;BME280;17770;45.966;13.632;2023-12-20T08:31:44;100379.81;;;13.72;58.02
31121;BME280;17770;45.966;13.632;2023-12-20T08:34:12;100375.47;;;13.72;58.08
31121;BME280;17770;45.966;13.632;2023-12-20T08:36:39;100376.31;;;13.73;58.14
31121;BME280;17770;45.966;13.632;2023-12-20T08:39:05;100373.81;;;13.71;57.54
31121;BME280;17770;45.966;13.632;2023-12-20T08:41:33;100370.28;;;13.72;57.62
31121;BME280;17770;45.966;13.632;2023-12-20T08:43:58;100372.94;;;13.71;57.97
31121;BME280;17770;45.966;13.632;2023-12-20T08:46:24;100370.28;;;13.72;57.98
31121;BME280;17770;45.966;13.632;2023-12-20T08:48:50;100372.03;;;13.72;57.60
31121;BME280;17770;45.966;13.632;2023-12-20T08:51:16;100368.63;;;13.71;57.75
31121;BME280;17770;45.966;13.632;2023-12-20T08:53:43;100370.28;;;13.72;58.05
31121;BME280;17770;45.966;13.632;2023-12-20T08:56:10;100375.47;;;13.72;57.97
31121;BME280;17770;45.966;13.632;2023-12-20T08:58:37;100393.69;;;13.71;57.66
31121;BME280;17770;45.966;13.632;2023-12-20T09:01:03;100406.56;;;13.72;57.72
31121;BME280;17770;45.966;13.632;2023-12-20T09:03:29;100416.09;;;13.72;58.09
31121;BME280;17770;45.966;13.632;2023-12-20T09:05:55;100419.66;;;13.69;57.96
31121;BME280;17770;45.966;13.632;2023-12-20T09:08:21;100429.09;;;13.70;57.58
31121;BME280;17770;45.966;13.632;2023-12-20T09:10:47;100404.03;;;13.71;57.93
31121;BME280;17770;45.966;13.632;2023-12-20T09:13:13;100392.81;;;13.70;58.01
31121;BME280;17770;45.966;13.632;2023-12-20T09:15:39;100385.97;;;13.69;57.69
31121;BME280;17770;45.966;13.632;2023-12-20T09:18:04;100386.81;;;13.70;58.03
31121;BME280;17770;45.966;13.632;2023-12-20T09:20:30;100403.19;;;13.70;57.92
31121;BME280;17770;45.966;13.632;2023-12-20T09:22:56;100397.25;;;13.68;58.03
31121;BME280;17770;45.966;13.632;2023-12-20T09:25:23;100396.34;;;13.69;57.39
31121;BME280;17770;45.966;13.632;2023-12-20T09:27:49;100395.41;;;13.70;57.72
31121;BME280;17770;45.966;13.632;2023-12-20T09:30:14;100380.72;;;13.71;57.91
31121;BME280;17770;45.966;13.632;2023-12-20T09:32:40;100368.56;;;13.73;57.94
31121;BME280;17770;45.966;13.632;2023-12-20T09:35:06;100364.31;;;13.70;57.81
31121;BME280;17770;45.966;13.632;2023-12-20T09:37:34;100371.28;;;13.70;58.01
31121;BME280;17770;45.966;13.632;2023-12-20T09:40:00;100361.66;;;13.72;57.74
31121;BME280;17770;45.966;13.632;2023-12-20T09:42:33;100359.06;;;13.72;57.97
31121;BME280;17770;45.966;13.632;2023-12-20T09:45:04;100356.56;;;13.70;57.64
31121;BME280;17770;45.966;13.632;2023-12-20T09:47:34;100351.38;;;13.70;57.87
31121;BME280;17770;45.966;13.632;2023-12-20T09:50:01;100363.44;;;13.71;57.97
31121;BME280;17770;45.966;13.632;2023-12-20T09:52:27;100353.88;;;13.72;58.15
31121;BME280;17770;45.966;13.632;2023-12-20T09:54:54;100347.03;;;13.71;57.74
31121;BME280;17770;45.966;13.632;2023-12-20T09:57:21;100353.06;;;13.71;58.11
31121;BME280;17770;45.966;13.632;2023-12-20T09:59:47;100346.19;;;13.70;58.02
31121;BME280;17770;45.966;13.632;2023-12-20T10:02:13;100347.88;;;13.71;57.49
31121;BME280;17770;45.966;13.632;2023-12-20T10:04:46;100349.63;;;13.71;58.00
31121;BME280;17770;45.966;13.632;2023-12-20T10:07:12;100341.84;;;13.71;57.70
31121;BME280;17770;45.966;13.632;2023-12-20T10:09:38;100318.59;;;13.69;57.54
31121;BME280;17770;45.966;13.632;2023-12-20T10:12:04;100315.09;;;13.70;57.72
31121;BME280;17770;45.966;13.632;2023-12-20T10:14:32;100307.31;;;13.70;57.70
31121;BME280;17770;45.966;13.632;2023-12-20T10:17:04;100309.91;;;13.70;57.68
31121;BME280;17770;45.966;13.632;2023-12-20T10:19:31;100307.31;;;13.70;58.09
31121;BME280;17770;45.966;13.632;2023-12-20T10:21:59;100315.09;;;13.70;58.08
31121;BME280;17770;45.966;13.632;2023-12-20T10:24:29;100318.53;;;13.71;57.85
31121;BME280;17770;45.966;13.632;2023-12-20T10:27:05;100313.34;;;13.71;58.13
31121;BME280;17770;45.966;13.632;2023-12-20T10:29:32;100315.94;;;13.71;58.20
31121;BME280;17770;45.966;13.632;2023-12-20T10:31:57;100315.94;;;13.71;58.27
31121;BME280;17770;45.966;13.632;2023-12-20T10:34:23;100316.78;;;13.71;58.00
31121;BME280;17770;45.966;13.632;2023-12-20T10:36:49;100323.66;;;13.72;58.24
31121;BME280;17770;45.966;13.632;2023-12-20T10:39:15;100309.84;;;13.72;58.24
31121;BME280;17770;45.966;13.632;2023-12-20T10:41:42;100304.66;;;13.72;57.96
31121;BME280;17770;45.966;13.632;2023-12-20T10:44:09;100320.16;;;13.73;58.19
31121;BME280;17770;45.966;13.632;2023-12-20T10:46:36;100317.59;;;13.72;57.67
31121;BME280;17770;45.966;13.632;2023-12-20T10:49:02;100311.47;;;13.74;57.69
31121;BME280;17770;45.966;13.632;2023-12-20T10:51:28;100306.28;;;13.74;57.82
31121;BME280;17770;45.966;13.632;2023-12-20T10:53:55;100299.44;;;13.73;58.21
31121;BME280;17770;45.966;13.632;2023-12-20T10:56:22;100291.66;;;13.73;58.14
31121;BME280;17770;45.966;13.632;2023-12-20T10:58:49;100279.59;;;13.72;58.01
31121;BME280;17770;45.966;13.632;2023-12-20T11:01:16;100267.47;;;13.73;58.18
31121;BME280;17770;45.966;13.632;2023-12-20T11:03:47;100260.56;;;13.73;58.06
31121;BME280;17770;45.966;13.632;2023-12-20T11:06:19;100264.81;;;13.74;58.13
31121;BME280;17770;45.966;13.632;2023-12-20T11:11:21;100261.31;;;13.75;57.43
31121;BME280;17770;45.966;13.632;2023-12-20T11:16:20;100263.97;;;13.74;58.17
31121;BME280;17770;45.966;13.632;2023-12-20T11:18:46;100263.97;;;13.74;57.68
31121;BME280;17770;45.966;13.632;2023-12-20T11:21:12;100247.59;;;13.73;57.81
31121;BME280;17770;45.966;13.632;2023-12-20T11:23:39;100239.81;;;13.73;58.24
31121;BME280;17770;45.966;13.632;2023-12-20T11:26:07;100232.81;;;13.75;57.92
31121;BME280;17770;45.966;13.632;2023-12-20T11:28:33;100231.91;;;13.76;57.39
31121;BME280;17770;45.966;13.632;2023-12-20T11:31:02;100225.88;;;13.76;57.79
31121;BME280;17770;45.966;13.632;2023-12-20T11:33:35;100233.66;;;13.76;57.50
31121;BME280;17770;45.966;13.632;2023-12-20T11:36:01;100227.63;;;13.75;57.90
31121;BME280;17770;45.966;13.632;2023-12-20T11:38:37;100239.75;;;13.75;57.66
31121;BME280;17770;45.966;13.632;2023-12-20T11:41:05;100235.38;;;13.75;57.73
31121;BME280;17770;45.966;13.632;2023-12-20T11:43:37;100231.97;;;13.75;57.59
31121;BME280;17770;45.966;13.632;2023-12-20T11:46:07;100227.50;;;13.78;58.11
31121;BME280;17770;45.966;13.632;2023-12-20T11:48:39;100237.09;;;13.76;57.91
31121;BME280;17770;45.966;13.632;2023-12-20T11:51:09;100222.38;;;13.77;57.59
31121;BME280;17770;45.966;13.632;2023-12-20T11:53:36;100225.81;;;13.77;57.50
31121;BME280;17770;45.966;13.632;2023-12-20T11:56:03;100218.88;;;13.78;57.79
31121;BME280;17770;45.966;13.632;2023-12-20T11:58:29;100218.03;;;13.77;57.76
31121;BME280;17770;45.966;13.632;2023-12-20T12:00:55;100214.59;;;13.77;57.81
31121;BME280;17770;45.966;13.632;2023-12-20T12:03:21;100217.97;;;13.79;57.99
31121;BME280;17770;45.966;13.632;2023-12-20T12:05:47;100215.28;;;13.80;57.99
31121;BME280;17770;45.966;13.632;2023-12-20T12:08:13;100209.22;;;13.81;57.98
31121;BME280;17770;45.966;13.632;2023-12-20T12:10:39;100206.63;;;13.81;57.83
31121;BME280;17770;45.966;13.632;2023-12-20T12:13:05;100205.78;;;13.81;58.07
31121;BME280;17770;45.966;13.632;2023-12-20T12:15:31;100202.25;;;13.82;57.82
31121;BME280;17770;45.966;13.632;2023-12-20T12:17:57;100204.03;;;13.81;58.19
31121;BME280;17770;45.966;13.632;2023-12-20T12:20:24;100210.97;;;13.81;58.20
31121;BME280;17770;45.966;13.632;2023-12-20T12:23:00;100214.34;;;13.83;58.35
31121;BME280;17770;45.966;13.632;2023-12-20T12:25:26;100204.84;;;13.82;58.22
31121;BME280;17770;45.966;13.632;2023-12-20T12:27:53;100210.81;;;13.84;58.34
31121;BME280;17770;45.966;13.632;2023-12-20T12:30:19;100199.59;;;13.83;57.71
31121;BME280;17770;45.966;13.632;2023-12-20T12:32:46;100188.34;;;13.84;57.94
31121;BME280;17770;45.966;13.632;2023-12-20T12:35:12;100178.88;;;13.83;58.05
31121;BME280;17770;45.966;13.632;2023-12-20T12:37:38;100172.00;;;13.82;58.23
31121;BME280;17770;45.966;13.632;2023-12-20T12:40:09;100177.97;;;13.84;58.00
31121;BME280;17770;45.966;13.632;2023-12-20T12:42:36;100176.22;;;13.85;57.79